Dexter, Iowa
Current Conditions -  °F | °C
As of 3:54 AM on Sunday 25 Jan 2015 (Local Time) from KDSM Reporting Station
Overcast Overcast  
Wind Chill: 33°   Ceiling: 1800
Heat Index: 41°   Visibility: 10mi
Dew Point: 37°   Wind: 14mph
Humidity: 86%   Direction: 40°NE
Pressure: 29.56"   Gusts: NA
Location:  41.52°N, 94.23°W
Report Text: KDSM 250954Z 04012KT 10SM OVC018 05/03 A2956 RMK AO2 SLP011 T00500028
Loading
Personal Weather Stations






























Interactive Weather Map New forecast layout! Learn more

10-Day Weather Forecast

Advertisements
Track Severe Weather on mobile